Time;durP1;ratioP1;P1;durP2;ratioP2;P2;SDS_P1;SDS_P2;PMS_P1;PMS_P2;Temp;Humidity;BMP_temperature;BMP_pressure;BME280_temperature;BME280_humidity;BME280_pressure;Samples;Min_cycle;Max_cycle;Signal;HPM_P1;HPM_P2
2022/02/23 00:03:04;;;;;;;4.50;0.30;;;7.10;99.90;;;;;;10293667;28;20490;-62
2022/02/23 00:08:06;;;;;;;2.10;0.30;;;7.10;99.90;;;;;;10337115;28;20484;-62
2022/02/23 00:13:07;;;;;;;4.57;0.40;;;7.00;99.90;;;;;;10337982;28;20058;-62
2022/02/23 00:18:11;;;;;;;2.47;0.20;;;7.00;99.90;;;;;;10342306;28;20141;-62
2022/02/23 00:23:14;;;;;;;6.47;0.40;;;7.00;99.90;;;;;;10348216;28;20590;-62
2022/02/23 00:28:18;;;;;;;5.40;0.28;;;6.90;99.90;;;;;;10337864;28;20049;-62
2022/02/23 00:33:19;;;;;;;6.82;1.17;;;6.70;99.90;;;;;;10341283;28;20077;-62
2022/02/23 00:38:21;;;;;;;19.25;0.73;;;6.60;99.90;;;;;;10346556;28;20050;-62
2022/02/23 00:43:25;;;;;;;4.07;0.30;;;6.50;99.90;;;;;;10342357;28;20084;-62
2022/02/23 00:48:27;;;;;;;7.45;0.50;;;6.40;99.90;;;;;;10343589;28;20115;-62
2022/02/23 00:53:28;;;;;;;1.10;0.30;;;6.30;99.90;;;;;;10341510;28;20068;-62
2022/02/23 00:58:30;;;;;;;6.22;0.77;;;6.20;99.90;;;;;;10340673;28;20164;-62
2022/02/23 01:03:32;;;;;;;4.85;0.50;;;6.30;99.90;;;;;;10332809;28;20108;-62
2022/02/23 01:08:35;;;;;;;1.15;0.40;;;6.30;99.90;;;;;;10334392;28;20046;-62
2022/02/23 01:13:36;;;;;;;11.60;0.70;;;6.30;99.90;;;;;;10336324;28;20074;-61
2022/02/23 01:18:38;;;;;;;6.97;0.63;;;6.20;99.90;;;;;;10340115;28;20120;-62
2022/02/23 01:23:40;;;;;;;9.15;0.80;;;6.20;99.90;;;;;;10335788;28;20077;-62
2022/02/23 01:28:42;;;;;;;8.35;1.20;;;6.10;99.90;;;;;;10339675;28;20401;-62
2022/02/23 01:33:43;;;;;;;6.85;1.10;;;6.10;99.90;;;;;;10345889;28;20074;-62
2022/02/23 01:38:45;;;;;;;6.78;0.80;;;6.10;99.90;;;;;;10338637;28;20084;-62
2022/02/23 01:43:48;;;;;;;9.27;0.77;;;6.00;99.90;;;;;;10341122;28;20049;-62
2022/02/23 01:48:50;;;;;;;11.82;2.10;;;5.90;99.90;;;;;;10335176;28;20045;-62
2022/02/23 01:53:51;;;;;;;5.43;0.68;;;5.90;99.90;;;;;;10335874;28;20077;-62
2022/02/23 01:58:53;;;;;;;3.10;0.80;;;6.00;99.90;;;;;;10335628;28;20038;-62
2022/02/23 02:03:55;;;;;;;2.78;0.65;;;5.80;99.90;;;;;;10342508;28;20445;-62
2022/02/23 02:08:57;;;;;;;8.23;1.38;;;5.70;99.90;;;;;;10340514;28;20100;-62
2022/02/23 02:13:58;;;;;;;9.40;1.15;;;5.80;99.90;;;;;;10344236;28;20052;-62
2022/02/23 02:19:03;;;;;;;5.55;0.90;;;5.90;99.90;;;;;;10336986;28;20043;-63
2022/02/23 02:24:05;;;;;;;3.47;0.65;;;5.90;99.90;;;;;;10340527;28;20504;-62
2022/02/23 02:29:06;;;;;;;9.65;1.05;;;6.00;99.90;;;;;;10348548;28;20103;-62
2022/02/23 02:34:08;;;;;;;7.63;1.52;;;6.00;99.90;;;;;;10334845;28;20077;-63
2022/02/23 02:39:10;;;;;;;4.82;0.85;;;6.00;99.90;;;;;;10338494;28;20501;-63
2022/02/23 02:44:12;;;;;;;9.25;1.15;;;6.20;99.90;;;;;;10336429;28;20115;-63
2022/02/23 02:49:13;;;;;;;10.20;1.13;;;6.20;99.90;;;;;;10339353;28;20072;-63
2022/02/23 02:54:15;;;;;;;10.30;0.95;;;6.20;99.90;;;;;;10340881;28;20123;-63
2022/02/23 02:59:17;;;;;;;6.32;0.63;;;6.10;99.90;;;;;;10350375;28;20061;-62
2022/02/23 03:04:19;;;;;;;4.55;0.73;;;6.20;99.90;;;;;;10341890;28;20061;-63
2022/02/23 03:09:21;;;;;;;3.47;0.60;;;6.00;99.90;;;;;;10347616;28;20045;-63
2022/02/23 03:14:23;;;;;;;6.18;0.70;;;6.00;99.90;;;;;;10347484;28;20044;-62
2022/02/23 03:19:24;;;;;;;7.03;1.08;;;5.90;99.90;;;;;;10347704;28;20121;-62
2022/02/23 03:24:26;;;;;;;5.25;0.60;;;5.90;99.90;;;;;;10347223;28;20077;-62
2022/02/23 03:29:28;;;;;;;4.25;0.65;;;5.90;99.90;;;;;;10351484;28;20050;-62
2022/02/23 03:34:30;;;;;;;6.85;0.70;;;5.80;99.90;;;;;;10344180;28;20073;-62
2022/02/23 03:39:31;;;;;;;9.35;0.85;;;5.80;99.90;;;;;;10333911;28;20047;-62
2022/02/23 03:44:33;;;;;;;8.77;0.90;;;5.80;99.90;;;;;;10344182;28;20532;-62
2022/02/23 03:49:35;;;;;;;10.63;0.90;;;5.70;99.90;;;;;;10345033;28;20045;-63
2022/02/23 03:54:38;;;;;;;5.18;0.63;;;5.60;99.90;;;;;;10344378;28;20054;-62
2022/02/23 03:59:39;;;;;;;6.10;0.70;;;5.60;99.90;;;;;;10340033;28;20517;-62
2022/02/23 04:04:41;;;;;;;7.30;0.50;;;5.70;99.90;;;;;;10342760;28;20046;-63
2022/02/23 04:09:43;;;;;;;4.78;0.80;;;5.80;99.90;;;;;;10340949;28;20488;-63
2022/02/23 04:14:46;;;;;;;6.13;1.38;;;5.80;99.90;;;;;;10344806;28;20136;-63
2022/02/23 04:19:47;;;;;;;3.17;0.80;;;5.80;99.90;;;;;;10350946;28;20097;-63
2022/02/23 04:24:49;;;;;;;5.72;0.60;;;5.80;99.90;;;;;;10338499;28;20050;-63
2022/02/23 04:29:51;;;;;;;13.25;0.90;;;6.00;99.90;;;;;;10343420;28;20084;-63
2022/02/23 04:34:53;;;;;;;8.68;0.52;;;6.30;99.90;;;;;;10337797;28;20180;-63
2022/02/23 04:39:56;;;;;;;15.63;0.90;;;6.40;99.90;;;;;;10335488;28;20508;-63
2022/02/23 04:45:00;;;;;;;7.47;1.52;;;6.40;99.90;;;;;;10348454;28;20409;-63
2022/02/23 04:50:03;;;;;;;9.27;0.70;;;6.40;99.90;;;;;;10345194;28;20056;-63
2022/02/23 04:55:05;;;;;;;3.05;0.60;;;6.40;99.90;;;;;;10342709;28;20077;-63
2022/02/23 05:00:07;;;;;;;9.48;2.05;;;6.40;99.90;;;;;;10341011;28;20125;-64
2022/02/23 05:05:10;;;;;;;18.77;0.93;;;6.30;99.90;;;;;;10328131;28;20681;-64
2022/02/23 05:10:12;;;;;;;3.17;0.40;;;6.30;99.90;;;;;;10347404;28;20065;-63
2022/02/23 05:15:14;;;;;;;6.70;0.82;;;6.30;99.90;;;;;;10348206;28;20084;-63
2022/02/23 05:20:15;;;;;;;8.70;0.70;;;6.20;99.90;;;;;;10342197;28;20058;-63
2022/02/23 05:25:17;;;;;;;9.57;0.60;;;6.10;99.90;;;;;;10332254;28;20064;-63
2022/02/23 05:30:19;;;;;;;10.35;0.75;;;6.10;99.90;;;;;;10338281;28;20073;-63
2022/02/23 05:35:21;;;;;;;3.65;0.60;;;6.10;99.90;;;;;;10337325;28;20555;-62
2022/02/23 05:40:22;;;;;;;16.60;1.27;;;6.00;99.90;;;;;;10348344;28;20068;-63
2022/02/23 05:45:24;;;;;;;5.07;0.57;;;5.90;99.90;;;;;;10343679;28;20134;-64
2022/02/23 05:50:26;;;;;;;7.45;0.60;;;5.80;99.90;;;;;;10343909;28;20045;-64
2022/02/23 05:55:32;;;;;;;6.28;0.50;;;5.80;99.90;;;;;;10343375;28;20076;-65
2022/02/23 06:00:34;;;;;;;8.18;0.90;;;5.70;99.90;;;;;;10329916;28;20054;-65
2022/02/23 06:05:36;;;;;;;6.60;0.90;;;5.60;99.90;;;;;;10338666;28;20078;-64
2022/02/23 06:10:37;;;;;;;11.38;0.85;;;5.50;99.90;;;;;;10329077;28;20074;-64
2022/02/23 06:15:39;;;;;;;5.35;1.20;;;5.30;99.90;;;;;;10344445;28;20066;-64
2022/02/23 06:20:41;;;;;;;5.32;0.82;;;5.10;99.90;;;;;;10347175;28;20073;-63
2022/02/23 06:25:43;;;;;;;14.10;1.27;;;4.90;99.90;;;;;;10335611;28;20107;-63
2022/02/23 06:30:45;;;;;;;4.80;0.85;;;4.90;99.90;;;;;;10337416;28;20400;-68
2022/02/23 06:35:50;;;;;;;16.92;1.40;;;4.80;99.90;;;;;;10347870;28;20060;-68
2022/02/23 06:40:52;;;;;;;6.75;1.08;;;4.70;99.90;;;;;;10347912;28;20111;-67
2022/02/23 06:45:53;;;;;;;12.52;1.25;;;4.60;99.90;;;;;;10352269;28;20085;-68
2022/02/23 06:50:55;;;;;;;8.43;1.25;;;4.50;99.90;;;;;;10342822;28;20168;-68
2022/02/23 06:55:57;;;;;;;5.68;0.85;;;4.40;99.90;;;;;;10339915;28;20065;-68
2022/02/23 07:00:58;;;;;;;9.98;1.30;;;4.40;99.90;;;;;;10350342;28;20453;-68
2022/02/23 07:06:00;;;;;;;10.45;1.20;;;4.70;99.90;;;;;;10345255;28;20050;-67
2022/02/23 07:11:02;;;;;;;8.60;1.33;;;4.70;99.90;;;;;;10350897;28;20049;-68
2022/02/23 07:16:07;;;;;;;8.00;0.82;;;4.80;99.90;;;;;;10340554;28;20497;-68
2022/02/23 07:21:09;;;;;;;13.93;1.05;;;4.70;99.90;;;;;;10347452;28;20074;-68
2022/02/23 07:26:10;;;;;;;7.47;0.77;;;4.70;99.90;;;;;;10348997;28;20077;-68
2022/02/23 07:31:14;;;;;;;9.32;0.80;;;4.70;99.90;;;;;;10353954;28;20397;-68
2022/02/23 07:36:16;;;;;;;7.57;1.23;;;4.70;99.90;;;;;;10366041;28;20045;-68
2022/02/23 07:41:23;;;;;;;8.55;0.88;;;4.70;99.90;;;;;;10330518;28;20049;-68
2022/02/23 07:46:44;;;;;;;11.80;1.15;;;4.70;99.90;;;;;;10352748;28;20056;-68
2022/02/23 07:51:46;;;;;;;8.25;1.08;;;4.90;99.90;;;;;;10334912;28;20133;-68
2022/02/23 07:56:48;;;;;;;12.60;1.55;;;4.90;99.90;;;;;;10335268;28;20056;-68
2022/02/23 08:01:51;;;;;;;10.38;1.00;;;5.00;99.90;;;;;;10346099;28;20100;-68
2022/02/23 08:06:52;;;;;;;12.80;1.40;;;5.10;99.90;;;;;;10329186;28;20130;-68
2022/02/23 08:11:54;;;;;;;13.85;1.48;;;5.30;99.90;;;;;;10336602;28;20518;-68
2022/02/23 08:22:17;;;;;;;7.00;0.95;;;5.70;99.90;;;;;;10337792;28;20050;-68
2022/02/23 08:27:20;;;;;;;7.63;0.98;;;5.80;99.90;;;;;;10344667;28;20461;-68
2022/02/23 08:32:23;;;;;;;7.38;0.95;;;5.90;99.90;;;;;;10343674;28;20096;-69
2022/02/23 08:37:27;;;;;;;7.63;0.63;;;6.10;99.90;;;;;;10332769;28;20041;-68
2022/02/23 08:42:34;;;;;;;14.75;1.25;;;6.30;99.90;;;;;;10346510;28;20129;-68
2022/02/23 08:47:36;;;;;;;10.57;0.93;;;6.50;99.90;;;;;;10342979;28;20057;-67
2022/02/23 08:52:38;;;;;;;7.88;0.90;;;6.60;99.90;;;;;;10338547;28;20049;-68
2022/02/23 08:57:39;;;;;;;8.57;1.60;;;6.80;99.90;;;;;;10340986;28;20108;-68
2022/02/23 09:02:41;;;;;;;10.93;0.85;;;6.90;99.60;;;;;;10343247;28;20096;-68
2022/02/23 09:07:43;;;;;;;14.80;1.40;;;7.20;97.20;;;;;;10338957;28;20054;-68
2022/02/23 09:12:46;;;;;;;6.30;1.25;;;7.20;96.90;;;;;;10343231;28;20472;-68
2022/02/23 09:17:47;;;;;;;9.30;0.90;;;7.40;99.90;;;;;;10341808;28;20073;-68
2022/02/23 09:22:50;;;;;;;7.28;1.25;;;7.40;96.50;;;;;;10340280;28;20046;-69
2022/02/23 09:27:51;;;;;;;8.73;0.93;;;7.50;96.30;;;;;;10344959;28;20045;-69
2022/02/23 09:32:54;;;;;;;6.07;1.00;;;7.70;98.50;;;;;;10335271;28;20127;-68
2022/02/23 09:37:57;;;;;;;10.82;2.60;;;7.70;98.00;;;;;;10338868;28;20046;-68
2022/02/23 09:42:59;;;;;;;6.22;1.67;;;7.90;95.70;;;;;;10329760;28;20120;-68
2022/02/23 09:48:00;;;;;;;7.70;0.77;;;8.00;93.30;;;;;;10345135;28;20077;-67
2022/02/23 09:53:02;;;;;;;11.50;0.80;;;8.10;92.80;;;;;;10337338;28;20045;-68
2022/02/23 09:58:05;;;;;;;8.73;0.70;;;8.30;91.00;;;;;;10348908;28;20046;-67
2022/02/23 10:03:07;;;;;;;8.38;0.45;;;8.20;90.40;;;;;;10338426;28;20124;-68
2022/02/23 10:08:10;;;;;;;4.93;0.50;;;8.40;88.10;;;;;;10340877;28;20096;-68
2022/02/23 10:13:32;;;;;;;13.30;1.25;;;8.50;89.60;;;;;;10342474;28;20049;-68
2022/02/23 10:18:34;;;;;;;4.55;1.42;;;8.50;90.30;;;;;;10336829;28;20061;-68
2022/02/23 10:23:36;;;;;;;10.27;2.28;;;8.60;87.40;;;;;;10347053;28;20730;-68
2022/02/23 10:28:38;;;;;;;6.72;0.52;;;8.80;86.30;;;;;;10335439;28;20399;-68
2022/02/23 10:33:42;;;;;;;6.05;0.52;;;8.80;85.10;;;;;;10340723;28;20104;-68
2022/02/23 10:39:10;;;;;;;3.05;0.40;;;8.90;82.00;;;;;;10344402;28;20046;-68
2022/02/23 10:44:12;;;;;;;5.93;0.80;;;8.90;81.00;;;;;;10335735;28;20467;-68
2022/02/23 10:49:17;;;;;;;3.88;0.95;;;9.10;84.00;;;;;;10345832;28;20060;-68
2022/02/23 10:54:20;;;;;;;2.80;0.47;;;9.10;80.90;;;;;;10339433;28;20104;-68
2022/02/23 10:59:23;;;;;;;8.05;1.15;;;9.40;82.00;;;;;;10338179;28;20112;-68
2022/02/23 11:04:25;;;;;;;6.32;1.05;;;9.60;81.50;;;;;;10344528;28;20054;-68
2022/02/23 11:09:26;;;;;;;6.85;0.75;;;9.70;81.80;;;;;;10335296;28;20509;-69
2022/02/23 11:14:28;;;;;;;6.68;0.57;;;9.70;79.20;;;;;;10333569;28;20136;-69
2022/02/23 11:19:33;;;;;;;7.97;0.80;;;9.90;77.70;;;;;;10344691;28;20107;-69
2022/02/23 11:24:35;;;;;;;5.38;0.60;;;10.00;77.10;;;;;;10345764;28;20089;-69
2022/02/23 11:29:44;;;;;;;8.15;0.40;;;9.90;74.70;;;;;;10337418;28;20050;-69
2022/02/23 11:34:47;;;;;;;4.05;0.60;;;9.70;74.10;;;;;;10340172;28;20065;-69
2022/02/23 11:39:51;;;;;;;4.32;0.50;;;9.70;74.10;;;;;;10337792;28;20433;-69
2022/02/23 11:45:27;;;;;;;12.73;0.88;;;9.70;75.40;;;;;;10344839;28;20104;-69
2022/02/23 11:50:30;;;;;;;5.38;0.73;;;9.80;75.50;;;;;;10315686;28;20070;-69
2022/02/23 11:55:32;;;;;;;10.90;0.90;;;9.80;74.20;;;;;;10348997;28;20092;-69
2022/02/23 12:00:36;;;;;;;8.15;0.60;;;10.00;74.20;;;;;;10340790;28;20050;-69
2022/02/23 12:05:55;;;;;;;10.38;0.85;;;10.20;74.40;;;;;;10338012;28;20472;-68
2022/02/23 12:11:13;;;;;;;6.82;1.00;;;10.20;71.10;;;;;;10337996;28;20071;-69
2022/02/23 12:16:23;;;;;;;5.22;0.70;;;10.20;72.10;;;;;;10336170;28;20124;-69
2022/02/23 12:21:53;;;;;;;8.82;0.93;;;10.30;71.70;;;;;;10345399;28;20282;-68
2022/02/23 12:26:56;;;;;;;9.45;0.70;;;10.50;70.30;;;;;;10338986;28;20491;-68
2022/02/23 12:32:07;;;;;;;5.20;0.63;;;10.50;70.60;;;;;;10342515;28;20486;-68
2022/02/23 12:37:13;;;;;;;6.72;0.40;;;10.70;69.70;;;;;;10344516;28;20489;-68
2022/02/23 12:42:16;;;;;;;4.20;0.73;;;10.70;68.40;;;;;;10342771;28;20038;-68
2022/02/23 12:47:18;;;;;;;4.38;0.47;;;10.70;68.90;;;;;;10336972;28;20402;-67
2022/02/23 12:52:22;;;;;;;6.78;0.73;;;10.70;68.00;;;;;;10345295;28;20052;-67
2022/02/23 12:57:24;;;;;;;5.70;0.70;;;10.80;66.90;;;;;;10342879;28;20050;-67
2022/02/23 13:02:27;;;;;;;5.55;1.00;;;10.90;67.80;;;;;;10344411;28;20054;-67
2022/02/23 13:07:29;;;;;;;6.68;0.40;;;10.80;66.80;;;;;;10343910;28;20056;-67
2022/02/23 13:12:31;;;;;;;3.17;0.40;;;10.80;66.80;;;;;;10335885;28;20136;-66
2022/02/23 13:17:32;;;;;;;7.00;0.50;;;10.90;66.10;;;;;;10338698;28;20132;-68
2022/02/23 13:22:36;;;;;;;6.30;0.43;;;11.00;64.80;;;;;;10334515;28;20112;-68
2022/02/23 13:27:37;;;;;;;4.15;0.85;;;11.20;65.80;;;;;;10341494;28;20045;-69
2022/02/23 13:32:41;;;;;;;3.85;0.40;;;11.40;63.90;;;;;;10343513;28;20042;-68
2022/02/23 13:37:46;;;;;;;6.00;0.40;;;11.50;64.90;;;;;;10341043;28;20054;-67
2022/02/23 13:42:58;;;;;;;1.67;0.30;;;11.50;63.90;;;;;;10338463;28;20687;-66
2022/02/23 13:48:06;;;;;;;4.53;0.50;;;12.00;63.00;;;;;;10346692;28;20587;-66
2022/02/23 13:53:12;;;;;;;;;;;12.80;64.10;;;;;;10329962;28;20436;-67
2022/02/23 13:58:21;;;;;;;5.50;0.50;;;13.70;56.50;;;;;;10338458;28;19921;-67
2022/02/23 14:03:37;;;;;;;4.53;0.40;;;14.10;53.70;;;;;;10333865;28;20053;-67
2022/02/23 14:08:40;;;;;;;3.95;0.32;;;14.50;52.70;;;;;;10340659;28;20408;-67
2022/02/23 14:13:44;;;;;;;4.15;0.80;;;14.70;52.40;;;;;;10337824;28;20578;-67
2022/02/23 14:18:51;;;;;;;5.68;0.35;;;14.60;54.40;;;;;;10343882;28;20080;-66
2022/02/23 14:23:58;;;;;;;2.75;0.38;;;13.70;54.60;;;;;;10339931;28;20441;-67
2022/02/23 14:29:05;;;;;;;1.92;0.20;;;13.40;56.10;;;;;;10334938;28;20049;-66
2022/02/23 14:34:27;;;;;;;6.40;0.80;;;13.40;55.80;;;;;;10337753;28;20099;-66
2022/02/23 14:39:29;;;;;;;5.72;0.45;;;13.50;54.90;;;;;;10337611;28;20050;-65
2022/02/23 14:44:31;;;;;;;2.47;0.68;;;13.50;55.30;;;;;;10334930;28;20050;-66
2022/02/23 14:49:33;;;;;;;5.93;0.40;;;13.40;55.50;;;;;;10335961;28;20601;-66
2022/02/23 14:54:34;;;;;;;5.63;0.82;;;13.50;56.40;;;;;;10347367;28;20054;-66
2022/02/23 14:59:38;;;;;;;7.82;0.30;;;13.70;55.20;;;;;;10349389;28;20042;-66
2022/02/23 15:04:40;;;;;;;1.58;0.30;;;13.60;56.40;;;;;;10345825;28;20069;-66
2022/02/23 15:09:43;;;;;;;3.15;0.30;;;13.60;55.00;;;;;;10342483;28;20050;-66
2022/02/23 15:14:45;;;;;;;6.75;0.40;;;13.60;54.30;;;;;;10337503;28;20053;-65
2022/02/23 15:19:47;;;;;;;2.72;0.30;;;13.50;55.70;;;;;;10355683;28;20551;-65
2022/02/23 15:24:49;;;;;;;3.13;0.65;;;13.60;57.50;;;;;;10351038;28;20107;-66
2022/02/23 15:29:51;;;;;;;4.57;0.22;;;13.40;57.10;;;;;;10344227;28;20135;-66
2022/02/23 15:34:53;;;;;;;3.70;0.50;;;13.30;55.50;;;;;;10345404;28;20049;-65
2022/02/23 15:39:55;;;;;;;9.13;0.30;;;13.20;56.20;;;;;;10337899;28;20269;-65
2022/02/23 15:44:57;;;;;;;1.65;0.30;;;12.70;54.40;;;;;;10342822;28;20057;-65
2022/02/23 15:49:59;;;;;;;5.53;0.80;;;12.70;55.80;;;;;;10348820;28;20484;-65
2022/02/23 15:55:02;;;;;;;3.83;0.30;;;12.30;56.50;;;;;;10338525;28;20057;-65
2022/02/23 16:00:06;;;;;;;2.78;0.65;;;12.00;57.60;;;;;;10343050;28;20138;-66
2022/02/23 16:05:08;;;;;;;3.03;0.30;;;11.70;58.50;;;;;;10340383;28;20982;-66
2022/02/23 16:10:09;;;;;;;3.90;0.73;;;11.50;59.40;;;;;;10353010;28;20048;-66
2022/02/23 16:15:11;;;;;;;2.42;0.25;;;11.40;59.70;;;;;;10348320;28;20119;-66
2022/02/23 16:20:13;;;;;;;1.67;0.20;;;11.20;60.70;;;;;;10342896;28;20120;-66
2022/02/23 16:25:16;;;;;;;2.55;0.60;;;11.00;61.30;;;;;;10347758;28;20145;-65
2022/02/23 16:30:18;;;;;;;3.55;0.40;;;10.90;61.00;;;;;;10340059;28;20057;-65
2022/02/23 16:35:19;;;;;;;3.80;0.50;;;10.60;62.20;;;;;;10355145;28;20136;-67
2022/02/23 16:40:21;;;;;;;4.05;0.20;;;10.50;63.00;;;;;;10344770;28;20038;-67
2022/02/23 16:45:23;;;;;;;4.05;0.40;;;10.40;64.10;;;;;;10343613;28;20122;-67
2022/02/23 16:50:25;;;;;;;5.68;0.80;;;10.10;65.70;;;;;;10340771;28;20169;-68
2022/02/23 16:55:26;;;;;;;2.67;0.28;;;9.90;66.20;;;;;;10343109;28;20070;-68
2022/02/23 17:00:29;;;;;;;4.53;0.50;;;9.60;68.20;;;;;;10343518;28;20135;-67
2022/02/23 17:05:31;;;;;;;2.13;0.30;;;9.40;69.40;;;;;;10340457;28;20054;-68
2022/02/23 17:10:33;;;;;;;5.70;0.30;;;9.10;70.00;;;;;;10350787;28;20049;-68
2022/02/23 17:15:35;;;;;;;3.90;0.55;;;8.90;71.10;;;;;;10334556;28;20085;-68
2022/02/23 17:20:37;;;;;;;3.50;0.55;;;8.70;73.00;;;;;;10346739;28;20660;-62
2022/02/23 17:25:39;;;;;;;4.03;0.30;;;8.40;74.50;;;;;;10336979;28;20069;-62
2022/02/23 17:30:42;;;;;;;2.60;0.60;;;8.30;75.40;;;;;;10339006;28;20127;-62
2022/02/23 17:35:44;;;;;;;7.15;0.50;;;8.00;76.40;;;;;;10336807;28;20070;-62
2022/02/23 17:40:47;;;;;;;4.53;0.70;;;7.80;77.40;;;;;;10345059;28;20144;-62
2022/02/23 17:45:49;;;;;;;5.07;0.70;;;7.60;78.10;;;;;;10330937;28;20140;-62
2022/02/23 17:50:50;;;;;;;6.07;1.23;;;7.40;80.10;;;;;;10346163;28;20053;-62
2022/02/23 17:55:53;;;;;;;6.88;0.82;;;7.30;79.60;;;;;;10338905;28;20516;-62
2022/02/23 18:01:00;;;;;;;7.70;1.40;;;7.20;80.70;;;;;;10338531;28;20045;-63
2022/02/23 18:06:03;;;;;;;9.13;1.37;;;7.00;82.90;;;;;;10344103;28;20069;-62
2022/02/23 18:11:05;;;;;;;12.38;1.45;;;6.90;85.40;;;;;;10330567;28;20724;-63
2022/02/23 18:16:07;;;;;;;7.18;1.30;;;6.70;86.30;;;;;;10344086;28;20049;-63
2022/02/23 18:21:09;;;;;;;14.73;3.33;;;6.50;90.10;;;;;;10328258;28;20073;-63
2022/02/23 18:26:12;;;;;;;13.05;2.58;;;6.40;91.80;;;;;;10336108;28;20099;-63
2022/02/23 18:31:14;;;;;;;9.43;2.53;;;6.20;92.80;;;;;;10341929;28;20045;-63
2022/02/23 18:36:15;;;;;;;11.50;2.00;;;6.10;94.50;;;;;;10340427;28;20050;-63
2022/02/23 18:41:18;;;;;;;10.73;2.40;;;6.00;95.80;;;;;;10336785;28;20092;-63
2022/02/23 18:46:20;;;;;;;9.65;3.28;;;5.80;97.40;;;;;;10335320;28;20128;-63
2022/02/23 18:51:22;;;;;;;11.27;3.38;;;5.70;98.30;;;;;;10335030;28;20053;-63
2022/02/23 18:56:24;;;;;;;10.85;2.92;;;5.50;97.80;;;;;;10332776;28;20132;-63
2022/02/23 19:01:26;;;;;;;7.65;2.50;;;5.40;97.50;;;;;;10337765;28;20115;-63
2022/02/23 19:06:47;;;;;;;4.47;1.85;;;5.30;99.90;;;;;;10332060;28;20048;-63
2022/02/23 19:11:49;;;;;;;8.68;1.45;;;5.20;98.90;;;;;;10337834;28;20127;-63
2022/02/23 19:16:51;;;;;;;8.30;1.42;;;5.10;99.90;;;;;;10332391;28;20103;-63
2022/02/23 19:21:55;;;;;;;7.63;1.83;;;5.00;99.90;;;;;;10337239;28;20722;-63
2022/02/23 19:26:59;;;;;;;10.48;2.00;;;4.90;99.90;;;;;;10343393;28;20478;-62
2022/02/23 19:32:01;;;;;;;6.47;1.50;;;4.90;99.90;;;;;;10343050;28;20064;-62
2022/02/23 19:37:04;;;;;;;7.20;2.25;;;4.70;99.90;;;;;;10335993;28;20046;-61
2022/02/23 19:42:06;;;;;;;12.48;3.75;;;4.70;99.90;;;;;;10349605;28;20120;-62
2022/02/23 19:47:08;;;;;;;12.68;3.53;;;4.50;99.90;;;;;;10341302;28;20124;-62
2022/02/23 19:52:10;;;;;;;10.52;4.15;;;4.50;99.90;;;;;;10338256;28;20078;-61
2022/02/23 19:57:11;;;;;;;19.00;5.10;;;4.40;99.90;;;;;;10344445;28;20060;-62
2022/02/23 20:02:13;;;;;;;15.85;6.53;;;4.30;99.90;;;;;;10338008;28;20076;-62
2022/02/23 20:07:15;;;;;;;23.60;7.03;;;4.20;99.90;;;;;;10343420;28;20145;-62
2022/02/23 20:12:17;;;;;;;21.23;7.88;;;4.10;99.90;;;;;;10341200;28;20050;-62
2022/02/23 20:17:18;;;;;;;20.67;8.30;;;4.10;99.90;;;;;;10341620;28;20081;-62
2022/02/23 20:22:20;;;;;;;19.25;6.30;;;4.00;99.90;;;;;;10345515;28;20525;-62
2022/02/23 20:27:22;;;;;;;7.78;2.78;;;3.90;99.90;;;;;;10343059;28;20332;-61
2022/02/23 20:32:24;;;;;;;9.93;2.65;;;3.80;99.90;;;;;;10342918;28;20057;-62
2022/02/23 20:37:26;;;;;;;13.25;4.03;;;3.80;99.90;;;;;;10351746;28;20054;-63
2022/02/23 20:42:32;;;;;;;9.40;3.60;;;3.70;99.90;;;;;;10340505;28;20049;-62
2022/02/23 20:47:34;;;;;;;10.73;4.20;;;3.70;99.90;;;;;;10341967;28;20081;-62
2022/02/23 20:52:37;;;;;;;8.48;2.78;;;3.60;99.90;;;;;;10342726;28;20504;-62
2022/02/23 20:57:40;;;;;;;9.55;2.72;;;3.60;99.90;;;;;;10345411;28;20105;-62
2022/02/23 21:02:42;;;;;;;5.22;2.80;;;3.50;99.90;;;;;;10337007;28;20085;-62
2022/02/23 21:07:44;;;;;;;7.05;2.60;;;3.50;99.90;;;;;;10350553;28;20073;-62
2022/02/23 21:12:46;;;;;;;5.95;2.03;;;3.50;99.90;;;;;;10341356;28;20054;-62
2022/02/23 21:17:48;;;;;;;10.05;2.40;;;3.50;99.90;;;;;;10334013;28;20057;-62
2022/02/23 21:22:50;;;;;;;6.72;1.88;;;3.50;99.90;;;;;;10350919;28;20099;-62
2022/02/23 21:27:52;;;;;;;10.52;3.22;;;3.60;99.90;;;;;;10341425;28;20140;-63
2022/02/23 21:32:54;;;;;;;8.43;2.78;;;3.70;99.90;;;;;;10340931;28;20057;-62
2022/02/23 21:37:56;;;;;;;7.47;1.67;;;3.80;99.90;;;;;;10340959;28;20053;-62
2022/02/23 21:42:59;;;;;;;8.90;2.45;;;3.80;99.90;;;;;;10348758;28;20049;-62
2022/02/23 21:48:01;;;;;;;3.72;1.45;;;3.90;99.90;;;;;;10343367;28;20057;-62
2022/02/23 21:53:03;;;;;;;10.73;2.75;;;4.00;99.90;;;;;;10349121;28;20108;-62
2022/02/23 21:58:05;;;;;;;11.10;1.85;;;4.10;99.90;;;;;;10344598;28;20070;-62
2022/02/23 22:03:07;;;;;;;6.53;2.08;;;4.10;99.90;;;;;;10341092;28;20053;-62
2022/02/23 22:08:09;;;;;;;4.80;1.98;;;4.30;99.90;;;;;;10343060;28;20152;-62
2022/02/23 22:13:10;;;;;;;12.43;2.67;;;4.40;99.90;;;;;;10343402;28;20049;-62
2022/02/23 22:18:12;;;;;;;10.63;3.20;;;4.40;99.90;;;;;;10343118;28;20112;-62
2022/02/23 22:23:14;;;;;;;13.10;3.60;;;4.50;99.90;;;;;;10336495;28;20077;-62
2022/02/23 22:28:15;;;;;;;12.20;3.70;;;4.60;99.90;;;;;;10344418;28;20056;-62
2022/02/23 22:33:17;;;;;;;9.70;3.05;;;4.70;99.90;;;;;;10338583;28;20081;-62
2022/02/23 22:38:19;;;;;;;10.45;3.50;;;4.70;99.90;;;;;;10331171;28;20152;-62
2022/02/23 22:43:20;;;;;;;9.43;2.53;;;4.80;99.90;;;;;;10339727;28;20137;-62
2022/02/23 22:48:22;;;;;;;6.20;2.70;;;4.80;99.90;;;;;;10342908;28;20100;-62
2022/02/23 22:53:24;;;;;;;9.57;3.20;;;4.80;99.90;;;;;;10330343;28;20668;-62
2022/02/23 22:58:28;;;;;;;11.80;3.58;;;4.90;99.90;;;;;;10271275;28;20510;-62
2022/02/23 23:03:31;;;;;;;10.30;2.85;;;5.00;99.90;;;;;;10335040;28;20159;-62
2022/02/23 23:08:33;;;;;;;11.82;2.15;;;4.90;99.90;;;;;;10340767;28;20088;-62
2022/02/23 23:13:36;;;;;;;8.75;2.40;;;5.00;99.90;;;;;;10345678;28;20053;-62
2022/02/23 23:18:38;;;;;;;6.97;2.85;;;5.00;99.90;;;;;;10364258;28;20141;-62
2022/02/23 23:23:39;;;;;;;7.45;2.33;;;5.10;99.90;;;;;;10347593;28;20073;-62
2022/02/23 23:28:42;;;;;;;15.07;2.20;;;5.10;99.90;;;;;;10347443;28;20112;-62
2022/02/23 23:33:49;;;;;;;12.38;2.80;;;5.10;99.90;;;;;;10346168;28;20050;-62
2022/02/23 23:38:50;;;;;;;8.50;1.98;;;5.20;99.90;;;;;;10343148;28;20637;-62
2022/02/23 23:43:55;;;;;;;11.18;3.03;;;5.20;99.90;;;;;;10352119;28;20144;-62
2022/02/23 23:48:56;;;;;;;7.38;2.63;;;5.20;99.90;;;;;;10342847;28;20068;-62
2022/02/23 23:53:58;;;;;;;8.07;2.22;;;5.20;99.90;;;;;;10354290;28;20078;-62
2022/02/23 23:59:00;;;;;;;7.55;3.30;;;5.20;99.90;;;;;;10340068;28;20074;-62
